createdAt,value
2018-04-12T00:00:33.436Z,93.50
2018-04-12T00:03:00.419Z,85.67
2018-04-12T00:05:26.652Z,86.87
2018-04-12T00:07:52.901Z,78.43
2018-04-12T00:10:19.117Z,83.57
2018-04-12T00:12:46.073Z,88.40
2018-04-12T00:15:12.328Z,87.03
2018-04-12T00:17:38.988Z,87.50
2018-04-12T00:20:05.229Z,88.30
2018-04-12T00:22:31.444Z,80.47
2018-04-12T00:24:57.651Z,78.63
2018-04-12T00:27:24.641Z,78.90
2018-04-12T00:29:51.624Z,86.27
2018-04-12T00:32:17.849Z,76.17
2018-04-12T00:34:44.164Z,87.67
2018-04-12T00:37:10.420Z,86.57
2018-04-12T00:39:36.688Z,86.37
2018-04-12T00:42:02.934Z,88.40
2018-04-12T00:44:29.204Z,87.57
2018-04-12T00:46:55.436Z,93.37
2018-04-12T00:49:21.677Z,88.80
2018-04-12T00:51:47.920Z,90.57
2018-04-12T00:54:14.163Z,94.47
2018-04-12T00:56:40.409Z,89.97
2018-04-12T00:59:06.676Z,84.20
2018-04-12T01:01:35.089Z,82.73
2018-04-12T01:04:02.764Z,95.10
2018-04-12T01:06:29.048Z,85.20
2018-04-12T01:08:55.357Z,86.03
2018-04-12T01:11:21.628Z,83.87
2018-04-12T01:13:47.904Z,85.27
2018-04-12T01:16:14.172Z,86.30
2018-04-12T01:18:42.512Z,86.90
2018-04-12T01:21:08.781Z,98.40
2018-04-12T01:23:35.791Z,84.63
2018-04-12T01:26:02.060Z,86.23
2018-04-12T01:28:29.091Z,87.73
2018-04-12T01:30:55.363Z,86.73
2018-04-12T01:33:24.549Z,80.97
2018-04-12T01:35:50.798Z,78.17
2018-04-12T01:38:19.996Z,74.43
2018-04-12T01:40:46.956Z,79.53
2018-04-12T01:43:17.688Z,73.07
2018-04-12T01:45:43.980Z,69.63
2018-04-12T01:48:10.227Z,65.53
2018-04-12T01:50:36.449Z,66.63
2018-04-12T01:53:02.665Z,67.00
2018-04-12T01:55:28.913Z,74.30
2018-04-12T01:57:55.156Z,66.63
2018-04-12T02:00:21.398Z,71.83
2018-04-12T02:02:47.616Z,64.27
2018-04-12T02:05:14.568Z,65.40
2018-04-12T02:07:41.883Z,62.23
2018-04-12T02:10:08.124Z,67.63
2018-04-12T02:12:36.827Z,65.00
2018-04-12T02:15:03.057Z,62.23
2018-04-12T02:17:30.111Z,65.13
2018-04-12T02:19:56.334Z,62.10
2018-04-12T02:22:22.588Z,59.43
2018-04-12T02:24:48.831Z,58.73
2018-04-12T02:27:15.780Z,58.93
2018-04-12T02:29:42.043Z,59.93
2018-04-12T02:32:08.298Z,59.77
2018-04-12T02:34:34.536Z,57.00
2018-04-12T02:37:00.768Z,60.20
2018-04-12T02:39:27.040Z,54.80
2018-04-12T02:41:53.272Z,57.93
2018-04-12T02:44:19.516Z,57.30
2018-04-12T02:46:45.919Z,56.20
2018-04-12T02:49:12.179Z,57.73
2018-04-12T02:51:38.503Z,56.47
2018-04-12T02:54:04.780Z,58.57
2018-04-12T02:56:31.082Z,60.33
2018-04-12T02:58:57.337Z,55.13
2018-04-12T03:01:23.596Z,55.13
2018-04-12T03:03:49.876Z,56.13
2018-04-12T03:06:17.410Z,58.63
2018-04-12T03:08:43.660Z,58.33
2018-04-12T03:11:09.916Z,59.47
2018-04-12T03:13:36.505Z,54.73
2018-04-12T03:16:02.720Z,56.03
2018-04-12T03:18:29.737Z,59.43
2018-04-12T03:20:55.987Z,57.70
2018-04-12T03:23:22.284Z,64.30
2018-04-12T03:25:48.509Z,59.13
2018-04-12T03:28:14.731Z,57.73
2018-04-12T03:30:41.728Z,58.60
2018-04-12T03:33:07.984Z,59.73
2018-04-12T03:35:34.887Z,62.10
2018-04-12T03:38:01.129Z,64.07
2018-04-12T03:40:27.408Z,62.20
2018-04-12T03:42:54.382Z,67.87
2018-04-12T03:45:20.652Z,61.30
2018-04-12T03:47:46.926Z,62.73
2018-04-12T03:50:13.189Z,61.43
2018-04-12T03:52:39.466Z,65.70
2018-04-12T03:55:05.703Z,58.90
2018-04-12T03:57:31.976Z,68.93
2018-04-12T03:59:58.256Z,59.80
2018-04-12T04:02:25.268Z,63.57
2018-04-12T04:04:51.519Z,65.03
2018-04-12T04:07:17.822Z,64.03
2018-04-12T04:09:44.047Z,62.03
2018-04-12T04:12:10.325Z,68.10
2018-04-12T04:18:00.680Z,67.50
2018-04-12T04:20:40.157Z,69.70
2018-04-12T04:23:06.405Z,63.10
2018-04-12T04:25:38.752Z,59.93
2018-04-12T04:28:04.843Z,67.60
2018-04-12T04:30:30.930Z,60.67
2018-04-12T04:32:57.017Z,61.97
2018-04-12T04:35:23.092Z,58.93
2018-04-12T04:37:49.126Z,62.53
2018-04-12T04:40:15.170Z,61.33
2018-04-12T04:42:41.216Z,69.57
2018-04-12T04:45:07.282Z,64.23
2018-04-12T04:47:34.063Z,70.93
2018-04-12T04:50:00.108Z,64.40
2018-04-12T04:52:26.145Z,73.40
2018-04-12T04:54:52.233Z,66.37
2018-04-12T04:57:18.463Z,76.63
2018-04-12T04:59:48.277Z,69.40
2018-04-12T05:02:14.335Z,69.23
2018-04-12T05:04:40.371Z,65.63
2018-04-12T05:07:06.404Z,63.90
2018-04-12T05:09:33.291Z,67.97
2018-04-12T05:12:00.274Z,63.53
2018-04-12T05:14:26.555Z,67.33
2018-04-12T05:16:52.964Z,71.50
2018-04-12T05:19:19.232Z,63.23
2018-04-12T05:21:45.543Z,68.33
2018-04-12T05:24:11.932Z,73.30
2018-04-12T05:26:38.192Z,63.50
2018-04-12T05:29:04.434Z,65.53
2018-04-12T05:31:31.408Z,64.43
2018-04-12T05:33:57.638Z,60.30
2018-04-12T05:36:24.627Z,64.73
2018-04-12T05:38:50.916Z,67.67
2018-04-12T05:41:17.179Z,63.30
2018-04-12T05:43:43.419Z,64.00
2018-04-12T05:46:10.404Z,69.10
2018-04-12T05:48:36.640Z,67.17
2018-04-12T05:51:03.596Z,69.77
2018-04-12T05:53:29.910Z,60.00
2018-04-12T05:55:56.144Z,65.20
2018-04-12T05:58:22.388Z,62.37
2018-04-12T06:00:49.443Z,69.23
2018-04-12T06:03:15.688Z,71.53
2018-04-12T06:05:43.320Z,65.50
2018-04-12T06:08:09.605Z,65.20
2018-04-12T06:10:36.622Z,61.83
2018-04-12T06:13:03.637Z,71.10
2018-04-12T06:15:29.881Z,65.17
2018-04-12T06:17:57.664Z,66.57
2018-04-12T06:20:24.640Z,72.93
2018-04-12T06:22:50.863Z,66.23
2018-04-12T06:25:17.091Z,70.77
2018-04-12T06:27:44.097Z,68.37
2018-04-12T06:30:10.345Z,69.97
2018-04-12T06:32:36.554Z,66.10
2018-04-12T06:35:02.810Z,71.07
2018-04-12T06:37:29.074Z,66.83
2018-04-12T06:39:55.408Z,69.70
2018-04-12T06:42:21.637Z,70.90
2018-04-12T06:44:48.606Z,73.10
2018-04-12T06:47:14.820Z,71.67
2018-04-12T06:49:41.072Z,70.67
2018-04-12T06:52:07.379Z,69.87
2018-04-12T06:54:34.388Z,72.50
2018-04-12T06:57:01.082Z,74.60
2018-04-12T06:59:27.321Z,71.67
2018-04-12T07:01:53.658Z,72.03
2018-04-12T07:04:19.920Z,72.20
2018-04-12T07:06:47.004Z,69.43
2018-04-12T07:09:13.287Z,73.13
2018-04-12T07:11:39.505Z,66.17
2018-04-12T07:14:05.788Z,65.43
2018-04-12T07:16:32.019Z,67.07
2018-04-12T07:18:59.608Z,69.03
2018-04-12T07:21:25.836Z,72.57
2018-04-12T07:23:52.070Z,63.93
2018-04-12T07:26:19.105Z,70.27
2018-04-12T07:28:45.330Z,73.53
2018-04-12T07:31:12.276Z,72.50
2018-04-12T07:33:39.357Z,71.90
2018-04-12T07:36:05.635Z,74.43
2018-04-12T07:38:31.988Z,72.30
2018-04-12T07:40:58.231Z,74.87
2018-04-12T07:43:24.464Z,69.07
2018-04-12T07:45:50.735Z,78.03
2018-04-12T07:48:17.214Z,68.30
2018-04-12T07:50:43.461Z,68.20
2018-04-12T07:53:09.745Z,80.93
2018-04-12T07:55:35.992Z,69.57
2018-04-12T07:58:03.033Z,73.20
2018-04-12T08:03:01.366Z,71.53
2018-04-12T08:05:27.645Z,68.60
2018-04-12T08:07:55.042Z,72.73
2018-04-12T08:10:22.107Z,68.20
2018-04-12T08:12:48.411Z,63.90
2018-04-12T08:15:14.708Z,67.73
2018-04-12T08:17:40.978Z,67.87
2018-04-12T08:20:07.247Z,70.40
2018-04-12T08:22:33.608Z,66.53
2018-04-12T08:24:59.892Z,63.40
2018-04-12T08:27:26.167Z,61.77
2018-04-12T08:29:53.237Z,66.53
2018-04-12T08:32:19.512Z,65.13
2018-04-12T08:34:45.733Z,65.80
2018-04-12T08:37:11.979Z,63.90
2018-04-12T08:39:38.246Z,67.57
2018-04-12T08:42:04.479Z,60.70
2018-04-12T08:44:30.701Z,60.33
2018-04-12T08:46:56.940Z,63.07
2018-04-12T08:49:23.941Z,63.33
2018-04-12T08:51:50.965Z,57.87
2018-04-12T08:54:17.184Z,57.30
2018-04-12T08:56:43.488Z,60.10
2018-04-12T08:59:09.722Z,54.37
2018-04-12T09:01:35.947Z,55.77
2018-04-12T09:04:02.197Z,60.63
2018-04-12T09:06:33.345Z,60.70
2018-04-12T09:08:59.577Z,54.00
2018-04-12T09:11:25.848Z,56.13
2018-04-12T09:13:52.091Z,54.97
2018-04-12T09:16:19.184Z,53.90
2018-04-12T09:18:45.413Z,51.97
2018-04-12T09:21:11.640Z,62.37
2018-04-12T09:23:42.755Z,52.70
2018-04-12T09:26:09.060Z,59.43
2018-04-12T09:28:35.272Z,49.40
2018-04-12T09:31:01.626Z,51.33
2018-04-12T09:33:27.835Z,54.90
2018-04-12T09:35:54.060Z,55.33
2018-04-12T09:38:20.323Z,49.50
2018-04-12T09:40:46.570Z,50.03
2018-04-12T09:43:14.558Z,54.50
2018-04-12T09:45:44.267Z,54.33
2018-04-12T09:48:10.520Z,49.87
2018-04-12T09:50:36.728Z,46.63
2018-04-12T09:53:02.968Z,52.03
2018-04-12T09:55:29.236Z,49.00
2018-04-12T09:57:55.487Z,44.70
2018-04-12T10:00:26.816Z,48.83
2018-04-12T10:02:55.072Z,45.87
2018-04-12T10:05:27.503Z,48.17
2018-04-12T10:08:01.564Z,43.57
2018-04-12T10:10:29.567Z,45.80
2018-04-12T10:12:56.534Z,43.03
2018-04-12T10:15:22.751Z,42.47
2018-04-12T10:17:48.977Z,42.47
2018-04-12T10:20:15.200Z,44.47
2018-04-12T10:22:41.438Z,59.23
2018-04-12T10:25:08.446Z,39.13
2018-04-12T10:27:34.673Z,39.57
2018-04-12T10:30:00.944Z,63.47
2018-04-12T10:32:27.173Z,41.80
2018-04-12T10:34:53.427Z,42.47
2018-04-12T10:37:19.712Z,42.20
2018-04-12T10:39:45.994Z,43.63
2018-04-12T10:42:12.296Z,45.57
2018-04-12T10:44:38.605Z,43.97
2018-04-12T10:47:04.879Z,44.80
2018-04-12T10:49:34.999Z,45.10
2018-04-12T10:52:02.028Z,43.13
2018-04-12T10:54:28.265Z,45.93
2018-04-12T10:56:54.558Z,42.63
2018-04-12T10:59:21.583Z,48.60
2018-04-12T11:01:47.868Z,43.27
2018-04-12T11:04:16.675Z,43.43
2018-04-12T11:06:45.604Z,44.03
2018-04-12T11:09:12.037Z,42.47
2018-04-12T11:11:38.345Z,42.83
2018-04-12T11:14:05.419Z,41.77
2018-04-12T11:16:32.484Z,43.30
2018-04-12T11:18:58.780Z,42.53
2018-04-12T11:21:29.753Z,42.63
2018-04-12T11:23:55.991Z,41.30
2018-04-12T11:26:22.265Z,44.97
2018-04-12T11:28:49.261Z,39.60
2018-04-12T11:31:15.516Z,38.07
2018-04-12T11:33:41.775Z,39.87
2018-04-12T11:36:08.062Z,39.30
2018-04-12T11:38:35.028Z,38.30
2018-04-12T11:41:01.276Z,38.70
2018-04-12T11:43:27.495Z,39.70
2018-04-12T11:45:53.701Z,37.20
2018-04-12T11:48:19.939Z,39.57
2018-04-12T11:50:46.157Z,36.37
2018-04-12T11:53:12.371Z,35.73
2018-04-12T11:55:39.363Z,35.40
2018-04-12T11:58:17.888Z,35.93
2018-04-12T12:00:44.268Z,36.43
2018-04-12T12:03:11.285Z,34.70
2018-04-12T12:05:37.560Z,36.53
2018-04-12T12:08:04.576Z,34.47
2018-04-12T12:10:30.821Z,35.47
2018-04-12T12:12:57.072Z,36.13
2018-04-12T12:15:23.310Z,36.53
2018-04-12T12:17:49.588Z,32.10
2018-04-12T12:20:15.757Z,34.03
2018-04-12T12:22:42.756Z,33.97
2018-04-12T12:25:08.983Z,36.40
2018-04-12T12:27:35.240Z,35.33
2018-04-12T12:30:01.475Z,34.07
2018-04-12T12:32:27.719Z,34.67
2018-04-12T12:34:54.037Z,33.83
2018-04-12T12:37:20.286Z,35.20
2018-04-12T12:39:46.595Z,33.70
2018-04-12T12:42:12.846Z,33.77
2018-04-12T12:44:39.854Z,35.80
2018-04-12T12:47:06.164Z,31.00
2018-04-12T12:49:32.440Z,31.83
2018-04-12T12:51:58.755Z,32.90
2018-04-12T12:54:24.992Z,32.57
2018-04-12T12:56:51.244Z,31.93
2018-04-12T12:59:17.492Z,31.53
2018-04-12T13:01:43.783Z,33.30
2018-04-12T13:04:10.047Z,32.97
2018-04-12T13:06:36.325Z,31.10
2018-04-12T13:09:02.635Z,33.37
2018-04-12T13:11:28.937Z,31.13
2018-04-12T13:13:55.208Z,33.13
2018-04-12T13:16:22.196Z,32.07
2018-04-12T13:18:48.461Z,31.90
2018-04-12T13:21:14.712Z,32.17
2018-04-12T13:23:41.004Z,32.20
2018-04-12T13:26:07.994Z,34.67
2018-04-12T13:28:34.291Z,33.00
2018-04-12T13:31:01.289Z,31.80
2018-04-12T13:33:27.538Z,30.70
2018-04-12T13:35:53.773Z,32.67
2018-04-12T13:38:20.020Z,34.60
2018-04-12T13:40:46.316Z,31.50
2018-04-12T13:43:12.609Z,32.63
2018-04-12T13:45:38.876Z,30.63
2018-04-12T13:48:05.127Z,33.27
2018-04-12T13:50:32.145Z,34.70
2018-04-12T13:52:59.267Z,34.03
2018-04-12T13:55:25.620Z,30.97
2018-04-12T13:57:51.850Z,32.97
2018-04-12T14:00:18.111Z,31.83
2018-04-12T14:02:44.375Z,31.50
2018-04-12T14:05:10.667Z,32.23
2018-04-12T14:07:37.685Z,31.70
2018-04-12T14:10:03.939Z,33.67
2018-04-12T14:12:30.933Z,32.53
2018-04-12T14:14:57.225Z,33.27
2018-04-12T14:17:23.508Z,33.33
2018-04-12T14:19:49.871Z,32.30
2018-04-12T14:22:16.123Z,32.87
2018-04-12T14:24:42.369Z,31.93
2018-04-12T14:27:08.645Z,31.60
2018-04-12T14:29:35.731Z,32.30
2018-04-12T14:32:02.073Z,30.83
2018-04-12T14:34:28.404Z,31.27
2018-04-12T14:36:54.759Z,35.67
2018-04-12T14:39:21.036Z,33.90
2018-04-12T14:41:47.322Z,36.03
2018-04-12T14:44:13.695Z,38.00
2018-04-12T14:46:39.992Z,35.73
2018-04-12T14:49:06.301Z,38.00
2018-04-12T14:51:32.574Z,33.50
2018-04-12T14:53:58.836Z,35.27
2018-04-12T14:56:25.905Z,36.17
2018-04-12T14:58:52.979Z,39.60
2018-04-12T15:01:19.264Z,34.57
2018-04-12T15:03:45.540Z,37.47
2018-04-12T15:06:11.806Z,36.03
2018-04-12T15:08:38.088Z,35.30
2018-04-12T15:11:04.348Z,35.57
2018-04-12T15:13:30.690Z,40.80
2018-04-12T15:15:56.944Z,37.10
2018-04-12T15:18:23.813Z,41.50
2018-04-12T15:20:49.882Z,38.13
2018-04-12T15:23:15.940Z,42.93
2018-04-12T15:25:41.996Z,41.07
2018-04-12T15:28:08.084Z,40.47
2018-04-12T15:30:34.181Z,42.20
2018-04-12T15:33:00.991Z,43.50
2018-04-12T15:35:27.800Z,42.30
2018-04-12T15:37:54.592Z,47.40
2018-04-12T15:40:20.648Z,47.90
2018-04-12T15:42:46.714Z,46.53
2018-04-12T15:45:13.259Z,46.80
2018-04-12T15:47:41.123Z,43.90
2018-04-12T15:50:07.210Z,46.70
2018-04-12T15:52:34.003Z,46.87
2018-04-12T15:55:00.108Z,44.10
2018-04-12T15:57:26.115Z,48.33
2018-04-12T15:59:52.172Z,43.63
2018-04-12T16:02:18.986Z,41.40
2018-04-12T16:04:45.049Z,44.90
2018-04-12T16:07:11.108Z,53.30
2018-04-12T16:09:37.897Z,45.53
2018-04-12T16:12:03.977Z,42.90
2018-04-12T16:14:30.042Z,46.33
2018-04-12T16:16:56.851Z,46.77
2018-04-12T16:19:22.924Z,47.00
2018-04-12T16:21:49.853Z,45.70
2018-04-12T16:24:15.923Z,46.40
2018-04-12T16:26:42.735Z,49.47
2018-04-12T16:29:08.812Z,46.53
2018-04-12T16:31:35.620Z,48.00
2018-04-12T16:34:01.695Z,48.20
2018-04-12T16:36:28.469Z,48.17
2018-04-12T16:38:54.519Z,46.53
2018-04-12T16:41:20.579Z,54.33
2018-04-12T16:43:46.633Z,48.50
2018-04-12T16:46:12.685Z,46.87
2018-04-12T16:48:38.764Z,50.07
2018-04-12T16:51:04.854Z,47.50
2018-04-12T16:53:31.604Z,42.57
2018-04-12T16:55:57.687Z,47.90
2018-04-12T16:58:23.751Z,41.53
2018-04-12T17:00:49.793Z,44.10
2018-04-12T17:03:16.564Z,43.23
2018-04-12T17:05:42.605Z,44.37
2018-04-12T17:08:08.655Z,44.10
2018-04-12T17:10:35.548Z,43.40
2018-04-12T17:13:01.634Z,43.10
2018-04-12T17:15:27.676Z,41.43
2018-04-12T17:17:53.727Z,42.33
2018-04-12T17:20:20.506Z,42.50
2018-04-12T17:22:46.547Z,40.53
2018-04-12T17:25:12.644Z,39.40
2018-04-12T17:27:39.432Z,39.87
2018-04-12T17:30:05.476Z,40.17
2018-04-12T17:32:31.512Z,41.40
2018-04-12T17:34:57.572Z,36.63
2018-04-12T17:37:23.683Z,35.77
2018-04-12T17:39:49.737Z,38.23
2018-04-12T17:42:15.808Z,34.53
2018-04-12T17:44:41.903Z,37.93
2018-04-12T17:47:08.009Z,38.60
2018-04-12T17:49:34.808Z,40.30
2018-04-12T17:52:00.892Z,37.20
2018-04-12T17:54:27.812Z,37.80
2018-04-12T17:56:54.005Z,36.70
2018-04-12T17:59:20.059Z,35.17
2018-04-12T18:01:46.131Z,38.20
2018-04-12T18:04:12.336Z,36.57
2018-04-12T18:06:38.461Z,42.87
2018-04-12T18:09:04.680Z,39.90
2018-04-12T18:11:31.436Z,43.17
2018-04-12T18:13:58.232Z,37.10
2018-04-12T18:16:24.352Z,37.80
2018-04-12T18:18:50.411Z,36.53
2018-04-12T18:21:16.496Z,39.87
2018-04-12T18:23:42.657Z,39.10
2018-04-12T18:26:08.751Z,40.00
2018-04-12T18:28:34.912Z,36.30
2018-04-12T18:31:01.726Z,38.97
2018-04-12T18:33:27.790Z,34.13
2018-04-12T18:35:53.875Z,36.30
2018-04-12T18:38:20.033Z,31.90
2018-04-12T18:40:46.139Z,37.23
2018-04-12T18:43:12.215Z,27.90
2018-04-12T18:45:38.302Z,25.70
2018-04-12T18:48:04.380Z,27.40
2018-04-12T18:50:30.444Z,25.07
2018-04-12T18:52:56.533Z,25.97
2018-04-12T18:55:22.654Z,22.93
2018-04-12T18:57:48.704Z,24.23
2018-04-12T19:00:14.758Z,24.10
2018-04-12T19:02:40.841Z,20.97
2018-04-12T19:05:07.649Z,25.10
2018-04-12T19:07:33.705Z,25.90
2018-04-12T19:09:59.784Z,27.47
2018-04-12T19:12:26.579Z,29.87
2018-04-12T19:14:52.724Z,21.47
2018-04-12T19:17:19.317Z,22.23
2018-04-12T19:19:45.555Z,22.83
2018-04-12T19:22:12.584Z,17.10
2018-04-12T19:24:38.853Z,21.80
2018-04-12T19:27:05.128Z,19.67
2018-04-12T19:29:31.400Z,17.77
2018-04-12T19:31:57.648Z,21.57
2018-04-12T19:34:24.718Z,19.70
2018-04-12T19:36:50.951Z,19.97
2018-04-12T19:39:17.235Z,19.30
2018-04-12T19:41:43.496Z,18.30
2018-04-12T19:44:09.756Z,16.53
2018-04-12T19:46:36.035Z,17.90
2018-04-12T19:49:02.304Z,16.20
2018-04-12T19:51:28.595Z,15.03
2018-04-12T19:53:54.873Z,13.43
2018-04-12T19:56:21.186Z,13.63
2018-04-12T19:58:47.452Z,16.83
2018-04-12T20:01:14.481Z,15.30
2018-04-12T20:03:40.731Z,15.60
2018-04-12T20:06:07.827Z,16.80
2018-04-12T20:08:34.904Z,15.40
2018-04-12T20:11:01.273Z,15.93
2018-04-12T20:13:27.535Z,18.90
2018-04-12T20:15:53.769Z,20.03
2018-04-12T20:18:20.028Z,18.90
2018-04-12T20:20:46.289Z,18.60
2018-04-12T20:23:12.536Z,20.10
2018-04-12T20:25:38.788Z,16.20
2018-04-12T20:28:05.832Z,18.50
2018-04-12T20:30:32.056Z,18.43
2018-04-12T20:32:58.392Z,19.67
2018-04-12T20:35:24.684Z,16.83
2018-04-12T20:37:50.911Z,21.07
2018-04-12T20:40:17.156Z,18.67
2018-04-12T20:42:43.406Z,22.60
2018-04-12T20:45:09.665Z,21.50
2018-04-12T20:47:35.888Z,21.17
2018-04-12T20:50:02.129Z,22.70
2018-04-12T20:52:28.368Z,21.17
2018-04-12T20:54:55.336Z,24.00
2018-04-12T20:57:21.584Z,21.53
2018-04-12T20:59:47.816Z,19.37
2018-04-12T21:02:14.263Z,21.47
2018-04-12T21:04:40.545Z,21.43
2018-04-12T21:07:06.815Z,27.03
2018-04-12T21:09:33.049Z,23.57
2018-04-12T21:11:59.281Z,21.97
2018-04-12T21:14:26.380Z,19.37
2018-04-12T21:16:53.328Z,19.90
2018-04-12T21:19:20.350Z,18.93
2018-04-12T21:21:46.588Z,21.80
2018-04-12T21:24:12.823Z,19.60
2018-04-12T21:26:39.658Z,16.43
2018-04-12T21:29:05.876Z,20.23
2018-04-12T21:31:32.124Z,18.50
2018-04-12T21:33:58.412Z,19.03
2018-04-12T21:36:25.493Z,18.70
2018-04-12T21:38:51.731Z,15.17
2018-04-12T21:41:18.728Z,19.40
2018-04-12T21:43:45.004Z,23.20
2018-04-12T21:46:11.288Z,17.83
2018-04-12T21:48:37.531Z,20.23
2018-04-12T21:51:04.524Z,18.57
2018-04-12T21:53:30.848Z,17.30
2018-04-12T21:55:57.116Z,16.73
2018-04-12T21:58:23.299Z,19.87
2018-04-12T22:00:50.616Z,25.43
2018-04-12T22:03:16.892Z,18.53
2018-04-12T22:05:43.167Z,16.57
2018-04-12T22:08:09.456Z,19.20
2018-04-12T22:10:35.744Z,17.37
2018-04-12T22:13:02.806Z,18.13
2018-04-12T22:15:29.056Z,19.07
2018-04-12T22:17:57.071Z,19.03
2018-04-12T22:20:23.359Z,20.80
2018-04-12T22:22:49.648Z,20.50
2018-04-12T22:25:15.915Z,19.20
2018-04-12T22:27:42.168Z,18.33
2018-04-12T22:30:09.187Z,18.60
2018-04-12T22:32:35.479Z,23.40
2018-04-12T22:35:01.753Z,17.63
2018-04-12T22:37:28.016Z,17.73
2018-04-12T22:39:54.243Z,22.63
2018-04-12T22:42:20.524Z,20.70
2018-04-12T22:44:46.796Z,23.83
2018-04-12T22:47:13.061Z,22.63
2018-04-12T22:49:39.367Z,18.00
2018-04-12T22:52:06.388Z,18.53
2018-04-12T22:54:32.646Z,17.73
2018-04-12T22:56:59.956Z,18.23
2018-04-12T22:59:26.219Z,18.60
2018-04-12T23:01:52.500Z,19.73
2018-04-12T23:04:19.660Z,19.70
2018-04-12T23:06:45.940Z,21.63
2018-04-12T23:09:12.929Z,20.90
2018-04-12T23:11:39.208Z,24.80
2018-04-12T23:14:05.492Z,22.67
2018-04-12T23:16:31.756Z,24.47
2018-04-12T23:18:58.000Z,19.83
2018-04-12T23:21:24.245Z,25.47
2018-04-12T23:23:50.553Z,21.80
2018-04-12T23:26:17.556Z,21.83
2018-04-12T23:28:43.816Z,23.83
2018-04-12T23:31:10.084Z,21.70
2018-04-12T23:33:37.088Z,23.10
2018-04-12T23:36:03.437Z,21.83
2018-04-12T23:38:37.729Z,22.30
2018-04-12T23:41:03.991Z,29.93
2018-04-12T23:43:30.424Z,31.00
2018-04-12T23:45:57.016Z,27.80
2018-04-12T23:48:23.280Z,29.90
2018-04-12T23:50:50.298Z,29.17
2018-04-12T23:53:17.421Z,35.10
2018-04-12T23:55:43.769Z,29.70
2018-04-12T23:58:10.881Z,28.77
